Observation data for Pampa on 07/11/2018      Previous  Date       Current Mesonet Observations  Soil Data  Daily Summary Page  Observations in Plain Language
KPMS 110505Z 17007KT 22/18 A3014 RMK A01 T02200177  RH  078%=      5-min Rain = 0
KPMS 110510Z 17007KT 22/18 A3014 RMK A01 T02220177  RH  077%=      5-min Rain = 0
KPMS 110515Z 16007KT 22/18 A3014 RMK A01 T02210176  RH  077%=      5-min Rain = 0
KPMS 110520Z 15006KT 22/18 A3014 RMK A01 T02180176  RH  079%=      5-min Rain = 0
KPMS 110525Z 14006KT 22/18 A3015 RMK A01 T02150176  RH  081%=      5-min Rain = 0
KPMS 110530Z 11006KT 21/18 A3015 RMK A01 T02110175  RH  082%=      5-min Rain = 0
KPMS 110535Z 12006KT 21/18 A3015 RMK A01 T02070176  RH  085%=      5-min Rain = 0
KPMS 110540Z 12008KT 21/18 A3015 RMK A01 T02060178  RH  086%=      5-min Rain = 0
KPMS 110545Z 12008KT 21/18 A3015 RMK A01 T02080179  RH  086%=      5-min Rain = 0
KPMS 110550Z 13007KT 21/18 A3015 RMK A01 T02080179  RH  086%=      5-min Rain = 0
KPMS 110555Z 13007KT 21/18 A3015 RMK A01 T02060179  RH  087%=      5-min Rain = 0
KPMS 110600Z 13007KT 20/18 A3015 RMK A01 T02040179  RH  088%=      5-min Rain = 0
KPMS 110605Z 14007KT 20/18 A3016 RMK A01 T02040179  RH  088%=      5-min Rain = 0
KPMS 110610Z 13007KT 20/18 A3015 RMK A01 T02040179  RH  088%=      5-min Rain = 0
KPMS 110615Z 13007KT 20/18 A3015 RMK A01 T02030179  RH  088%=      5-min Rain = 0
KPMS 110620Z 13008KT 20/18 A3016 RMK A01 T02020180  RH  089%=      5-min Rain = 0
KPMS 110625Z 13009KT 20/18 A3015 RMK A01 T02030180  RH  089%=      5-min Rain = 0
KPMS 110630Z 13009KT 20/18 A3015 RMK A01 T02040180  RH  089%=      5-min Rain = 0
KPMS 110635Z 13009KT 20/18 A3016 RMK A01 T02040180  RH  088%=      5-min Rain = 0
KPMS 110640Z 13008KT 20/18 A3016 RMK A01 T02040180  RH  088%=      5-min Rain = 0
KPMS 110645Z 13008KT 20/18 A3015 RMK A01 T02040180  RH  088%=      5-min Rain = 0
KPMS 110650Z 14009KT 20/18 A3015 RMK A01 T02030180  RH  089%=      5-min Rain = 0
KPMS 110655Z 15008KT 20/18 A3015 RMK A01 T02020179  RH  089%=      5-min Rain = 0
KPMS 110700Z 14008KT 20/18 A3015 RMK A01 T02010179  RH  089%=      5-min Rain = 0
KPMS 110705Z 14009KT 20/18 A3015 RMK A01 T02000179  RH  090%=      5-min Rain = 0
KPMS 110710Z 14008KT 20/18 A3015 RMK A01 T02000178  RH  089%=      5-min Rain = 0
KPMS 110715Z 15007KT 20/18 A3015 RMK A01 T01990179  RH  090%=      5-min Rain = 0
KPMS 110720Z 15007KT 20/18 A3015 RMK A01 T01980179  RH  091%=      5-min Rain = 0
KPMS 110725Z 14007KT 20/18 A3015 RMK A01 T01990179  RH  090%=      5-min Rain = 0
KPMS 110730Z 13007KT 20/18 A3015 RMK A01 T01980178  RH  090%=      5-min Rain = 0
KPMS 110735Z 14006KT 20/18 A3015 RMK A01 T01970178  RH  091%=      5-min Rain = 0
KPMS 110740Z 15005KT 20/18 A3015 RMK A01 T01960178  RH  091%=      5-min Rain = 0
KPMS 110745Z 15006KT 20/18 A3015 RMK A01 T01950178  RH  092%=      5-min Rain = 0
KPMS 110750Z 14006KT 19/18 A3014 RMK A01 T01940177  RH  092%=      5-min Rain = 0
KPMS 110755Z 14006KT 19/18 A3014 RMK A01 T01930177  RH  093%=      5-min Rain = 0
KPMS 110800Z 16005KT 19/18 A3014 RMK A01 T01920176  RH  093%=      5-min Rain = 0
KPMS 110805Z 15005KT 19/18 A3014 RMK A01 T01900175  RH  093%=      5-min Rain = 0
KPMS 110810Z 15004KT 19/17 A3013 RMK A01 T01880174  RH  094%=      5-min Rain = 0
KPMS 110815Z 16003KT 19/17 A3013 RMK A01 T01880174  RH  094%=      5-min Rain = 0
KPMS 110820Z 17004KT 19/18 A3013 RMK A01 T01870175  RH  095%=      5-min Rain = 0
KPMS 110825Z 18004KT 19/18 A3013 RMK A01 T01890177  RH  095%=      5-min Rain = 0
KPMS 110830Z 18004KT 19/18 A3013 RMK A01 T01920179  RH  094%=      5-min Rain = 0
KPMS 110835Z 19004KT 19/18 A3013 RMK A01 T01930178  RH  093%=      5-min Rain = 0
KPMS 110840Z 20004KT 20/18 A3013 RMK A01 T01960180  RH  093%=      5-min Rain = 0
KPMS 110845Z 19004KT 20/18 A3013 RMK A01 T01970179  RH  092%=      5-min Rain = 0
KPMS 110850Z 18004KT 20/18 A3013 RMK A01 T01980179  RH  091%=      5-min Rain = 0
KPMS 110855Z 17005KT 20/18 A3013 RMK A01 T01950176  RH  091%=      5-min Rain = 0
KPMS 110900Z 17005KT 19/17 A3013 RMK A01 T01900173  RH  092%=      5-min Rain = 0
KPMS 110905Z 17005KT 19/17 A3013 RMK A01 T01870172  RH  093%=      5-min Rain = 0
KPMS 110910Z 17005KT 19/17 A3012 RMK A01 T01860172  RH  094%=      5-min Rain = 0
KPMS 110915Z 18005KT 19/18 A3012 RMK A01 T01880175  RH  095%=      5-min Rain = 0
KPMS 110920Z 19004KT 19/18 A3012 RMK A01 T01920179  RH  094%=      5-min Rain = 0
KPMS 110925Z 19004KT 20/18 A3012 RMK A01 T01960179  RH  092%=      5-min Rain = 0
KPMS 110930Z 18004KT 20/18 A3012 RMK A01 T01960176  RH  091%=      5-min Rain = 0
KPMS 110935Z 18004KT 19/17 A3012 RMK A01 T01930174  RH  091%=      5-min Rain = 0
KPMS 110940Z 19005KT 19/18 A3012 RMK A01 T01910175  RH  093%=      5-min Rain = 0
KPMS 110945Z 19006KT 20/18 A3012 RMK A01 T01950177  RH  092%=      5-min Rain = 0
KPMS 110950Z 19006KT 20/18 A3012 RMK A01 T01970177  RH  091%=      5-min Rain = 0
KPMS 110955Z 20005KT 20/18 A3012 RMK A01 T01970177  RH  090%=      5-min Rain = 0
KPMS 111000Z 19004KT 20/18 A3012 RMK A01 T01960176  RH  090%=      5-min Rain = 0
KPMS 111005Z 18005KT 19/17 A3012 RMK A01 T01920173  RH  090%=      5-min Rain = 0
KPMS 111010Z 17005KT 19/17 A3012 RMK A01 T01870170  RH  092%=      5-min Rain = 0
KPMS 111015Z 18005KT 18/17 A3012 RMK A01 T01840170  RH  094%=      5-min Rain = 0
KPMS 111020Z 18004KT 19/17 A3011 RMK A01 T01860172  RH  094%=      5-min Rain = 0
KPMS 111025Z 18004KT 19/17 A3011 RMK A01 T01860173  RH  094%=      5-min Rain = 0
KPMS 111030Z 18004KT 19/17 A3012 RMK A01 T01870173  RH  094%=      5-min Rain = 0
KPMS 111035Z 18004KT 19/17 A3012 RMK A01 T01860173  RH  094%=      5-min Rain = 0
KPMS 111040Z 16005KT 18/17 A3012 RMK A01 T01830170  RH  094%=      5-min Rain = 0
KPMS 111045Z 16006KT 18/17 A3012 RMK A01 T01820171  RH  095%=      5-min Rain = 0
KPMS 111050Z 16006KT 18/17 A3012 RMK A01 T01830173  RH  096%=      5-min Rain = 0
KPMS 111055Z 16006KT 19/18 A3012 RMK A01 T01850175  RH  096%=      5-min Rain = 0
KPMS 111100Z 16006KT 19/18 A3012 RMK A01 T01860176  RH  096%=      5-min Rain = 0
KPMS 111105Z 16006KT 19/18 A3012 RMK A01 T01870176  RH  096%=      5-min Rain = 0
KPMS 111110Z 16007KT 19/18 A3012 RMK A01 T01880177  RH  096%=      5-min Rain = 0
KPMS 111115Z 17006KT 19/18 A3012 RMK A01 T01870176  RH  095%=      5-min Rain = 0
KPMS 111120Z 17006KT 19/18 A3013 RMK A01 T01870175  RH  095%=      5-min Rain = 0
KPMS 111125Z 16006KT 19/17 A3013 RMK A01 T01860174  RH  095%=      5-min Rain = 0
KPMS 111130Z 16006KT 19/17 A3013 RMK A01 T01850174  RH  096%=      5-min Rain = 0
KPMS 111135Z 16006KT 19/18 A3013 RMK A01 T01860176  RH  096%=      5-min Rain = 0
KPMS 111140Z 15005KT 19/18 A3013 RMK A01 T01860176  RH  096%=      5-min Rain = 0
KPMS 111145Z 15004KT 19/18 A3013 RMK A01 T01860176  RH  096%=      5-min Rain = 0
KPMS 111150Z 17003KT 19/18 A3013 RMK A01 T01860176  RH  096%=      5-min Rain = 0
KPMS 111155Z 16004KT 19/18 A3013 RMK A01 T01860176  RH  096%=      5-min Rain = 0
KPMS 111200Z 16004KT 18/17 A3013 RMK A01 T01840174  RH  096%=      5-min Rain = 0
KPMS 111205Z 16003KT 18/17 A3013 RMK A01 T01840174  RH  096%=      5-min Rain = 0
KPMS 111210Z 16004KT 18/17 A3013 RMK A01 T01840174  RH  096%=      5-min Rain = 0
KPMS 111215Z 17004KT 18/18 A3013 RMK A01 T01840175  RH  097%=      5-min Rain = 0
KPMS 111220Z 19005KT 19/18 A3013 RMK A01 T01880179  RH  097%=      5-min Rain = 0
KPMS 111225Z 19005KT 19/18 A3013 RMK A01 T01920181  RH  095%=      5-min Rain = 0
KPMS 111230Z 19005KT 20/18 A3013 RMK A01 T01950181  RH  094%=      5-min Rain = 0
KPMS 111235Z 19006KT 20/18 A3013 RMK A01 T01970181  RH  092%=      5-min Rain = 0
KPMS 111240Z 18005KT 20/18 A3013 RMK A01 T02000182  RH  092%=      5-min Rain = 0
KPMS 111245Z 18005KT 20/18 A3013 RMK A01 T02010183  RH  091%=      5-min Rain = 0
KPMS 111250Z 17006KT 20/18 A3013 RMK A01 T02030183  RH  091%=      5-min Rain = 0
KPMS 111255Z 17006KT 20/18 A3013 RMK A01 T02010182  RH  092%=      5-min Rain = 0
KPMS 111300Z 17005KT 20/18 A3014 RMK A01 T02000183  RH  092%=      5-min Rain = 0
KPMS 111305Z 18005KT 20/19 A3014 RMK A01 T02020185  RH  092%=      5-min Rain = 0
KPMS 111310Z 18005KT 21/19 A3014 RMK A01 T02100188  RH  089%=      5-min Rain = 0
KPMS 111315Z 19005KT 22/19 A3014 RMK A01 T02190189  RH  085%=      5-min Rain = 0
KPMS 111320Z 19006KT 23/19 A3014 RMK A01 T02260187  RH  081%=      5-min Rain = 0
KPMS 111325Z 19007KT 23/19 A3014 RMK A01 T02310185  RH  077%=      5-min Rain = 0
KPMS 111330Z 19007KT 23/18 A3014 RMK A01 T02330184  RH  076%=      5-min Rain = 0
KPMS 111335Z 19006KT 24/19 A3014 RMK A01 T02370186  RH  075%=      5-min Rain = 0
KPMS 111340Z 19007KT 24/19 A3014 RMK A01 T02430186  RH  072%=      5-min Rain = 0
KPMS 111345Z 19008KT 25/18 A3014 RMK A01 T02490184  RH  069%=      5-min Rain = 0
KPMS 111350Z 20010KT 25/18 A3014 RMK A01 T02500181  RH  067%=      5-min Rain = 0
KPMS 111355Z 19009KT 25/18 A3014 RMK A01 T02530182  RH  067%=      5-min Rain = 0
KPMS 111400Z 20008KT 26/18 A3014 RMK A01 T02560182  RH  065%=      5-min Rain = 0
KPMS 111405Z 20008KT 26/18 A3014 RMK A01 T02580181  RH  064%=      5-min Rain = 0
KPMS 111410Z 20008KT 26/18 A3014 RMK A01 T02610180  RH  063%=      5-min Rain = 0
KPMS 111415Z 20007G14KT 26/18 A3015 RMK A01 T02640178  RH  061%=      5-min Rain = 0
KPMS 111420Z 22008KT 27/17 A3015 RMK A01 T02680174  RH  058%=      5-min Rain = 0
KPMS 111425Z 21009KT 27/17 A3015 RMK A01 T02700171  RH  056%=      5-min Rain = 0
KPMS 111430Z 21009KT 27/17 A3015 RMK A01 T02720173  RH  056%=      5-min Rain = 0
KPMS 111435Z 22010KT 27/17 A3015 RMK A01 T02720170  RH  055%=      5-min Rain = 0
KPMS 111440Z 20009KT 27/17 A3015 RMK A01 T02740171  RH  055%=      5-min Rain = 0
KPMS 111445Z 20010KT 28/17 A3015 RMK A01 T02750168  RH  053%=      5-min Rain = 0
KPMS 111450Z 19011KT 28/17 A3015 RMK A01 T02760167  RH  053%=      5-min Rain = 0
KPMS 111455Z 20010KT 28/17 A3015 RMK A01 T02760167  RH  053%=      5-min Rain = 0
KPMS 111500Z 21010G16KT 28/16 A3015 RMK A01 T02750164  RH  052%=      5-min Rain = 0
KPMS 111505Z 21009G14KT 28/16 A3015 RMK A01 T02800163  RH  050%=      5-min Rain = 0
KPMS 111510Z 21009KT 28/16 A3015 RMK A01 T02820162  RH  049%=      5-min Rain = 0
KPMS 111515Z 21010KT 28/16 A3015 RMK A01 T02830157  RH  047%=      5-min Rain = 0
KPMS 111520Z 21011KT 28/16 A3015 RMK A01 T02840158  RH  047%=      5-min Rain = 0
KPMS 111525Z 21010G15KT 29/16 A3014 RMK A01 T02860159  RH  047%=      5-min Rain = 0
KPMS 111530Z 21011KT 29/16 A3014 RMK A01 T02850158  RH  047%=      5-min Rain = 0
KPMS 111535Z 21011KT 29/16 A3014 RMK A01 T02870159  RH  047%=      5-min Rain = 0
KPMS 111540Z 22009KT 29/16 A3014 RMK A01 T02870158  RH  047%=      5-min Rain = 0
KPMS 111545Z 21009KT 29/16 A3014 RMK A01 T02880160  RH  047%=      5-min Rain = 0
KPMS 111550Z 22008KT 29/16 A3014 RMK A01 T02890163  RH  048%=      5-min Rain = 0
KPMS 111555Z 22008G13KT 29/17 A3014 RMK A01 T02900165  RH  048%=      5-min Rain = 0
KPMS 111600Z 22008KT 29/17 A3014 RMK A01 T02930167  RH  048%=      5-min Rain = 0
KPMS 111605Z 20010KT 29/16 A3014 RMK A01 T02940163  RH  046%=      5-min Rain = 0
KPMS 111610Z 21009G14KT 30/16 A3014 RMK A01 T02950163  RH  046%=      5-min Rain = 0
KPMS 111615Z 19008KT 30/17 A3014 RMK A01 T02980165  RH  046%=      5-min Rain = 0
KPMS 111620Z 18008G13KT 30/17 A3014 RMK A01 T03020165  RH  045%=      5-min Rain = 0
KPMS 111625Z 17009G15KT 30/16 A3014 RMK A01 T03010161  RH  044%=      5-min Rain = 0
KPMS 111630Z 16010G15KT 31/16 A3014 RMK A01 T03050164  RH  044%=      5-min Rain = 0
KPMS 111635Z 16009KT 31/16 A3014 RMK A01 T03070162  RH  043%=      5-min Rain = 0
KPMS 111640Z 18011KT 31/16 A3014 RMK A01 T03050164  RH  044%=      5-min Rain = 0
KPMS 111645Z 17010KT 31/17 A3014 RMK A01 T03060165  RH  044%=      5-min Rain = 0
KPMS 111650Z 19009KT 31/16 A3014 RMK A01 T03050158  RH  042%=      5-min Rain = 0
KPMS 111655Z 19007G12KT 30/16 A3014 RMK A01 T02970161  RH  045%=      5-min Rain = 0
KPMS 111700Z 18010KT 30/17 A3013 RMK A01 T03010169  RH  046%=      5-min Rain = 0
KPMS 111705Z 18008KT 31/17 A3013 RMK A01 T03080170  RH  044%=      5-min Rain = 0
KPMS 111710Z 18010KT 31/17 A3013 RMK A01 T03070165  RH  044%=      5-min Rain = 0
KPMS 111715Z 17011G16KT 31/16 A3013 RMK A01 T03050158  RH  042%=      5-min Rain = 0
KPMS 111720Z 16010KT 31/16 A3013 RMK A01 T03090155  RH  040%=      5-min Rain = 0
KPMS 111725Z 16010G16KT 32/16 A3013 RMK A01 T03150155  RH  039%=      5-min Rain = 0
KPMS 111730Z 15012G18KT 32/16 A3013 RMK A01 T03160158  RH  040%=      5-min Rain = 0
KPMS 111735Z 15012G17KT 32/16 A3013 RMK A01 T03160157  RH  039%=      5-min Rain = 0
KPMS 111740Z 18011G18KT 31/15 A3013 RMK A01 T03140148  RH  037%=      5-min Rain = 0
KPMS 111745Z 17011G19KT 31/15 A3013 RMK A01 T03130152  RH  039%=      5-min Rain = 0
KPMS 111750Z 18013G20KT 32/15 A3013 RMK A01 T03160148  RH  037%=      5-min Rain = 0
KPMS 111755Z 18010G26KT 31/15 A3012 RMK A01 T03130153  RH  039%=      5-min Rain = 0
KPMS 111800Z 16015G23KT 32/14 A3012 RMK A01 T03190139  RH  034%=      5-min Rain = 0
KPMS 111805Z 17012G18KT 32/14 A3013 RMK A01 T03160135  RH  034%=      5-min Rain = 0
KPMS 111810Z 16012G18KT 32/14 A3012 RMK A01 T03160142  RH  036%=      5-min Rain = 0
KPMS 111815Z 16014KT 32/14 A3012 RMK A01 T03180142  RH  035%=      5-min Rain = 0
KPMS 111820Z 17014G19KT 32/14 A3012 RMK A01 T03200141  RH  034%=      5-min Rain = 0
KPMS 111825Z 17013G18KT 32/14 A3012 RMK A01 T03170138  RH  034%=      5-min Rain = 0
KPMS 111830Z 16017G22KT 32/13 A3011 RMK A01 T03210133  RH  033%=      5-min Rain = 0
KPMS 111835Z 16013G19KT 32/13 A3011 RMK A01 T03210132  RH  032%=      5-min Rain = 0
KPMS 111840Z 17013G20KT 32/13 A3011 RMK A01 T03210133  RH  033%=      5-min Rain = 0
KPMS 111845Z 16016G25KT 32/13 A3011 RMK A01 T03200132  RH  032%=      5-min Rain = 0
KPMS 111850Z 15015G21KT 32/13 A3011 RMK A01 T03220131  RH  032%=      5-min Rain = 0
KPMS 111855Z 15015G22KT 32/13 A3011 RMK A01 T03220131  RH  032%=      5-min Rain = 0
KPMS 111900Z 16016G23KT 32/13 A3011 RMK A01 T03220134  RH  033%=      5-min Rain = 0
KPMS 111905Z 16010KT 32/14 A3011 RMK A01 T03220141  RH  034%=      5-min Rain = 0
KPMS 111910Z 15016G23KT 32/14 A301 RMK A01 T03150139  RH  035%=      5-min Rain = 0
KPMS 111915Z 16015G21KT 32/14 A301 RMK A01 T03150140  RH  035%=      5-min Rain = 0
KPMS 111920Z 19014G20KT 32/14 A301 RMK A01 T03210144  RH  035%=      5-min Rain = 0
KPMS 111925Z 16014G19KT 32/14 A301 RMK A01 T03190138  RH  034%=      5-min Rain = 0
KPMS 111930Z 16014G21KT 32/14 A301 RMK A01 T03230140  RH  034%=      5-min Rain = 0
KPMS 111935Z 16013G18KT 33/14 A301 RMK A01 T03280137  RH  032%=      5-min Rain = 0
KPMS 111940Z 16015G21KT 33/14 A3009 RMK A01 T03280138  RH  032%=      5-min Rain = 0
KPMS 111945Z 18011G16KT 32/14 A3009 RMK A01 T03170136  RH  034%=      5-min Rain = 0
KPMS 111950Z 18011G16KT 32/14 A3009 RMK A01 T03180139  RH  035%=      5-min Rain = 0
KPMS 111955Z 18014KT 33/14 A3009 RMK A01 T03260136  RH  032%=      5-min Rain = 0
KPMS 112000Z 19013KT 33/14 A3008 RMK A01 T03270136  RH  032%=      5-min Rain = 0
KPMS 112005Z 17014G23KT 33/14 A3008 RMK A01 T03270144  RH  034%=      5-min Rain = 0
KPMS 112010Z 16012G18KT 33/14 A3008 RMK A01 T03290142  RH  033%=      5-min Rain = 0
KPMS 112015Z 16015G23KT 33/14 A3008 RMK A01 T03280139  RH  033%=      5-min Rain = 0
KPMS 112020Z 16017G23KT 33/14 A3008 RMK A01 T03270140  RH  033%=      5-min Rain = 0
KPMS 112025Z 16013G18KT 32/14 A3008 RMK A01 T03240138  RH  033%=      5-min Rain = 0
KPMS 112030Z 18012G19KT 32/14 A3007 RMK A01 T03210138  RH  034%=      5-min Rain = 0
KPMS 112035Z 17012G22KT 32/14 A3007 RMK A01 T03230136  RH  033%=      5-min Rain = 0
KPMS 112040Z 16014G20KT 33/14 A3007 RMK A01 T03270136  RH  032%=      5-min Rain = 0
KPMS 112045Z 16015G21KT 33/14 A3006 RMK A01 T03310141  RH  033%=      5-min Rain = 0
KPMS 112050Z 16014G23KT 34/14 A3006 RMK A01 T03360143  RH  032%=      5-min Rain = 0
KPMS 112055Z 16016G25KT 33/14 A3006 RMK A01 T03280135  RH  032%=      5-min Rain = 0
KPMS 112100Z 15015G22KT 33/14 A3006 RMK A01 T03330139  RH  032%=      5-min Rain = 0
KPMS 112105Z 16017G23KT 33/13 A3006 RMK A01 T03250134  RH  032%=      5-min Rain = 0
KPMS 112110Z 16015G22KT 32/13 A3006 RMK A01 T03230134  RH  032%=      5-min Rain = 0
KPMS 112115Z 16014G20KT 32/13 A3006 RMK A01 T03170132  RH  033%=      5-min Rain = 0
KPMS 112120Z 16016G24KT 33/14 A3005 RMK A01 T03280137  RH  032%=      5-min Rain = 0
KPMS 112125Z 16017G22KT 32/13 A3005 RMK A01 T03220133  RH  032%=      5-min Rain = 0
KPMS 112130Z 16016G22KT 32/14 A3005 RMK A01 T03170136  RH  034%=      5-min Rain = 0
KPMS 112135Z 15015G22KT 33/14 A3004 RMK A01 T03300140  RH  033%=      5-min Rain = 0
KPMS 112140Z 16017G30KT 33/14 A3004 RMK A01 T03340136  RH  031%=      5-min Rain = 0
KPMS 112145Z 16016G27KT 33/14 A3004 RMK A01 T03320138  RH  032%=      5-min Rain = 0
KPMS 112150Z 16015G24KT 32/13 A3004 RMK A01 T03240133  RH  032%=      5-min Rain = 0
KPMS 112155Z 15014G19KT 32/13 A3004 RMK A01 T03200134  RH  033%=      5-min Rain = 0
KPMS 112200Z 14016G22KT 33/13 A3004 RMK A01 T03250133  RH  032%=      5-min Rain = 0
KPMS 112205Z 15015G20KT 32/13 A3004 RMK A01 T03230131  RH  032%=      5-min Rain = 0
KPMS 112210Z 16019G25KT 33/13 A3003 RMK A01 T03300132  RH  031%=      5-min Rain = 0
KPMS 112215Z 14014G20KT 33/13 A3003 RMK A01 T03300132  RH  031%=      5-min Rain = 0
KPMS 112220Z 16017G34KT 34/13 A3003 RMK A01 T03350134  RH  030%=      5-min Rain = 0
KPMS 112225Z 17017G22KT 33/13 A3003 RMK A01 T03320128  RH  030%=      5-min Rain = 0
KPMS 112230Z 16013G18KT 33/13 A3003 RMK A01 T03340134  RH  030%=      5-min Rain = 0
KPMS 112235Z 17014KT 34/13 A3003 RMK A01 T03350131  RH  030%=      5-min Rain = 0
KPMS 112240Z 17015G21KT 33/13 A3003 RMK A01 T03320128  RH  030%=      5-min Rain = 0
KPMS 112245Z 16019KT 33/13 A3003 RMK A01 T03320129  RH  030%=      5-min Rain = 0
KPMS 112250Z 16018G24KT 33/13 A3003 RMK A01 T03310127  RH  030%=      5-min Rain = 0
KPMS 112255Z 16016G21KT 33/13 A3003 RMK A01 T03300127  RH  030%=      5-min Rain = 0
KPMS 112300Z 15018G23KT 33/13 A3003 RMK A01 T03310128  RH  030%=      5-min Rain = 0
KPMS 112305Z 16015G24KT 33/13 A3003 RMK A01 T03300128  RH  030%=      5-min Rain = 0
KPMS 112310Z 15017G23KT 33/13 A3003 RMK A01 T03300128  RH  030%=      5-min Rain = 0
KPMS 112315Z 16017G22KT 33/13 A3003 RMK A01 T03290125  RH  030%=      5-min Rain = 0
KPMS 112320Z 16017KT 33/13 A3003 RMK A01 T03290125  RH  030%=      5-min Rain = 0
KPMS 112325Z 16017G24KT 33/13 A3003 RMK A01 T03290126  RH  030%=      5-min Rain = 0
KPMS 112330Z 15018KT 33/13 A3003 RMK A01 T03280127  RH  030%=      5-min Rain = 0
KPMS 112335Z 15016KT 33/13 A3003 RMK A01 T03280130  RH  031%=      5-min Rain = 0
KPMS 112340Z 15015G21KT 33/13 A3003 RMK A01 T03260130  RH  031%=      5-min Rain = 0
KPMS 112345Z 16013G18KT 33/13 A3003 RMK A01 T03270130  RH  031%=      5-min Rain = 0
KPMS 112350Z 16013G19KT 33/13 A3003 RMK A01 T03270130  RH  031%=      5-min Rain = 0
KPMS 112355Z 16016G21KT 32/13 A3003 RMK A01 T03220128  RH  031%=      5-min Rain = 0
KPMS 120000Z 16016KT 32/13 A3003 RMK A01 T03210128  RH  031%=      5-min Rain = 0
KPMS 120005Z 15015G20KT 32/13 A3003 RMK A01 T03180130  RH  032%=      5-min Rain = 0
KPMS 120010Z 15015G20KT 31/13 A3003 RMK A01 T03120130  RH  034%=      5-min Rain = 0
KPMS 120015Z 15014KT 31/13 A3003 RMK A01 T03110132  RH  034%=      5-min Rain = 0
KPMS 120020Z 16015G20KT 31/13 A3003 RMK A01 T03110127  RH  033%=      5-min Rain = 0
KPMS 120025Z 15014KT 31/13 A3003 RMK A01 T03090132  RH  035%=      5-min Rain = 0
KPMS 120030Z 16015G21KT 31/13 A3004 RMK A01 T03120131  RH  034%=      5-min Rain = 0
KPMS 120035Z 15015G20KT 31/13 A3004 RMK A01 T03130132  RH  034%=      5-min Rain = 0
KPMS 120040Z 15016G21KT 31/13 A3004 RMK A01 T03090130  RH  034%=      5-min Rain = 0
KPMS 120045Z 15015KT 31/13 A3004 RMK A01 T03100131  RH  034%=      5-min Rain = 0
KPMS 120050Z 16014G20KT 31/13 A3004 RMK A01 T03110130  RH  034%=      5-min Rain = 0
KPMS 120055Z 16014KT 31/13 A3004 RMK A01 T03110131  RH  034%=      5-min Rain = 0
KPMS 120100Z 16012KT 31/13 A3004 RMK A01 T03100132  RH  034%=      5-min Rain = 0
KPMS 120105Z 15012G17KT 31/14 A3004 RMK A01 T03080135  RH  036%=      5-min Rain = 0
KPMS 120110Z 15013KT 31/14 A3004 RMK A01 T03060136  RH  036%=      5-min Rain = 0
KPMS 120115Z 15014G19KT 30/14 A3004 RMK A01 T03040135  RH  036%=      5-min Rain = 0
KPMS 120120Z 15011G16KT 30/14 A3004 RMK A01 T03020138  RH  037%=      5-min Rain = 0
KPMS 120125Z 15010KT 30/14 A3005 RMK A01 T02980139  RH  039%=      5-min Rain = 0
KPMS 120130Z 15010KT 30/14 A3005 RMK A01 T02950140  RH  040%=      5-min Rain = 0
KPMS 120135Z 15010KT 29/14 A3005 RMK A01 T02920140  RH  040%=      5-min Rain = 0
KPMS 120140Z 15009KT 29/14 A3005 RMK A01 T02910139  RH  040%=      5-min Rain = 0
KPMS 120145Z 15009KT 29/14 A3005 RMK A01 T02870142  RH  042%=      5-min Rain = 0
KPMS 120150Z 15009KT 28/14 A3005 RMK A01 T02840142  RH  043%=      5-min Rain = 0
KPMS 120155Z 15009KT 28/14 A3005 RMK A01 T02810143  RH  044%=      5-min Rain = 0
KPMS 120200Z 15009KT 28/14 A3005 RMK A01 T02770144  RH  045%=      5-min Rain = 0
KPMS 120205Z 15009KT 28/14 A3005 RMK A01 T02760141  RH  044%=      5-min Rain = 0
KPMS 120210Z 15009KT 28/14 A3005 RMK A01 T02760141  RH  044%=      5-min Rain = 0
KPMS 120215Z 15008KT 27/14 A3005 RMK A01 T02730144  RH  046%=      5-min Rain = 0
KPMS 120220Z 14008KT 27/15 A3005 RMK A01 T02680145  RH  048%=      5-min Rain = 0
KPMS 120225Z 14008KT 27/14 A3006 RMK A01 T02650144  RH  048%=      5-min Rain = 0
KPMS 120230Z 14007KT 26/15 A3006 RMK A01 T02620146  RH  050%=      5-min Rain = 0
KPMS 120235Z 14007KT 26/15 A3006 RMK A01 T02580146  RH  051%=      5-min Rain = 0
KPMS 120240Z 14008KT 26/15 A3006 RMK A01 T02560148  RH  052%=      5-min Rain = 0
KPMS 120245Z 14008KT 26/15 A3007 RMK A01 T02550148  RH  052%=      5-min Rain = 0
KPMS 120250Z 14008KT 26/15 A3007 RMK A01 T02570148  RH  052%=      5-min Rain = 0
KPMS 120255Z 14008KT 26/15 A3007 RMK A01 T02560149  RH  053%=      5-min Rain = 0
KPMS 120300Z 14009KT 26/15 A3007 RMK A01 T02560150  RH  053%=      5-min Rain = 0
KPMS 120305Z 15009KT 25/15 A3008 RMK A01 T02530153  RH  055%=      5-min Rain = 0
KPMS 120310Z 15008KT 25/16 A3008 RMK A01 T02480155  RH  057%=      5-min Rain = 0
KPMS 120315Z 15008KT 25/16 A3008 RMK A01 T02450155  RH  058%=      5-min Rain = 0
KPMS 120320Z 14009KT 24/16 A3008 RMK A01 T02430155  RH  059%=      5-min Rain = 0
KPMS 120325Z 14008KT 24/16 A3008 RMK A01 T02430155  RH  059%=      5-min Rain = 0
KPMS 120330Z 15008KT 24/16 A3009 RMK A01 T02410156  RH  060%=      5-min Rain = 0
KPMS 120335Z 15008KT 24/16 A3009 RMK A01 T02390156  RH  061%=      5-min Rain = 0
KPMS 120340Z 15008KT 24/16 A3009 RMK A01 T02380156  RH  061%=      5-min Rain = 0
KPMS 120345Z 15008KT 24/16 A3009 RMK A01 T02370156  RH  062%=      5-min Rain = 0
KPMS 120350Z 15007KT 24/16 A301 RMK A01 T02360155  RH  062%=      5-min Rain = 0
KPMS 120355Z 15007KT 24/15 A301 RMK A01 T02360153  RH  061%=      5-min Rain = 0
KPMS 120400Z 15007KT 24/15 A301 RMK A01 T02360153  RH  061%=      5-min Rain = 0
KPMS 120405Z 15007KT 23/15 A301 RMK A01 T02340154  RH  062%=      5-min Rain = 0
KPMS 120410Z 15008KT 23/16 A301 RMK A01 T02320155  RH  063%=      5-min Rain = 0
KPMS 120415Z 14008KT 23/15 A301 RMK A01 T02310154  RH  063%=      5-min Rain = 0
KPMS 120420Z 14008KT 24/15 A301 RMK A01 T02360151  RH  060%=      5-min Rain = 0
KPMS 120425Z 14008KT 24/15 A3009 RMK A01 T02410150  RH  058%=      5-min Rain = 0
KPMS 120430Z 14007KT 24/15 A3009 RMK A01 T02400151  RH  059%=      5-min Rain = 0
KPMS 120435Z 14007KT 24/15 A3009 RMK A01 T02350152  RH  061%=      5-min Rain = 0
KPMS 120440Z 14007KT 23/15 A3009 RMK A01 T02310154  RH  063%=      5-min Rain = 0
KPMS 120445Z 14008KT 23/16 A301 RMK A01 T02260155  RH  066%=      5-min Rain = 0
KPMS 120450Z 14008KT 22/16 A301 RMK A01 T02220155  RH  067%=      5-min Rain = 0
KPMS 120455Z 14008KT 22/16 A301 RMK A01 T02210155  RH  068%=      5-min Rain = 0
KPMS 120500Z 14007KT 22/16 A301 RMK A01 T02210155  RH  067%=      5-min Rain = 0

Page generated in 0.0096 seconds.